createdAt,value
2023-04-21T00:02:03.557Z,8.25
2023-04-21T00:04:33.307Z,9.40
2023-04-21T00:07:04.670Z,8.65
2023-04-21T00:09:31.739Z,6.78
2023-04-21T00:12:01.657Z,9.60
2023-04-21T00:14:29.929Z,7.90
2023-04-21T00:16:56.957Z,8.32
2023-04-21T00:19:24.303Z,5.15
2023-04-21T00:21:51.355Z,6.68
2023-04-21T00:24:18.453Z,7.82
2023-04-21T00:26:45.454Z,7.93
2023-04-21T00:29:12.490Z,7.43
2023-04-21T00:31:39.577Z,5.43
2023-04-21T00:34:06.580Z,7.85
2023-04-21T00:36:36.607Z,7.93
2023-04-21T00:39:04.076Z,6.80
2023-04-21T00:41:32.796Z,8.57
2023-04-21T00:44:07.992Z,7.95
2023-04-21T00:46:36.493Z,7.22
2023-04-21T00:49:08.211Z,8.55
2023-04-21T00:51:37.231Z,7.55
2023-04-21T00:54:09.372Z,5.78
2023-04-21T00:56:36.837Z,8.27
2023-04-21T00:59:04.302Z,6.50
2023-04-21T01:01:34.528Z,7.10
2023-04-21T01:04:02.758Z,5.15
2023-04-21T01:06:34.404Z,5.38
2023-04-21T01:09:02.132Z,4.20
2023-04-21T01:11:32.325Z,4.63
2023-04-21T01:14:00.470Z,5.63
2023-04-21T01:16:30.073Z,5.55
2023-04-21T01:18:58.483Z,6.75
2023-04-21T01:21:27.173Z,4.65
2023-04-21T01:23:54.603Z,4.60
2023-04-21T01:26:23.021Z,5.45
2023-04-21T01:28:50.344Z,5.60
2023-04-21T01:31:18.337Z,7.18
2023-04-21T01:33:45.894Z,7.35
2023-04-21T01:36:13.001Z,6.18
2023-04-21T01:38:42.102Z,7.30
2023-04-21T01:41:10.034Z,5.85
2023-04-21T01:43:37.527Z,5.30
2023-04-21T01:46:08.004Z,5.35
2023-04-21T01:48:37.318Z,5.15
2023-04-21T01:51:06.456Z,7.22
2023-04-21T01:53:33.473Z,6.03
2023-04-21T01:56:02.121Z,5.45
2023-04-21T01:58:33.748Z,5.55
2023-04-21T02:01:05.913Z,5.07
2023-04-21T02:03:32.991Z,5.35
2023-04-21T02:06:00.078Z,5.88
2023-04-21T02:08:27.193Z,6.85
2023-04-21T02:10:54.511Z,7.38
2023-04-21T02:13:21.576Z,5.68
2023-04-21T02:15:48.917Z,6.25
2023-04-21T02:18:16.932Z,7.00
2023-04-21T02:20:44.641Z,7.25
2023-04-21T02:23:13.678Z,7.07
2023-04-21T02:25:40.712Z,6.65
2023-04-21T02:28:07.812Z,6.88
2023-04-21T02:30:35.645Z,7.97
2023-04-21T02:33:02.881Z,6.47
2023-04-21T02:35:30.002Z,7.15
2023-04-21T02:37:57.760Z,5.68
2023-04-21T02:40:24.804Z,6.13
2023-04-21T02:42:52.714Z,6.82
2023-04-21T02:45:19.720Z,7.13
2023-04-21T02:47:46.711Z,6.35
2023-04-21T02:50:16.567Z,9.50
2023-04-21T02:52:43.607Z,8.38
2023-04-21T02:55:11.152Z,8.32
2023-04-21T02:57:38.135Z,7.38
2023-04-21T03:00:07.837Z,7.50
2023-04-21T03:02:35.149Z,9.00
2023-04-21T03:05:02.585Z,7.15
2023-04-21T03:07:30.925Z,6.47
2023-04-21T03:09:57.976Z,7.20
2023-04-21T03:12:25.026Z,6.38
2023-04-21T03:14:52.077Z,5.22
2023-04-21T03:17:19.106Z,6.18
2023-04-21T03:19:47.459Z,5.85
2023-04-21T03:22:14.672Z,6.90
2023-04-21T03:24:41.793Z,6.47
2023-04-21T03:27:10.803Z,5.53
2023-04-21T03:29:38.188Z,7.57
2023-04-21T03:32:05.322Z,7.32
2023-04-21T03:34:32.336Z,8.25
2023-04-21T03:37:03.090Z,7.05
2023-04-21T03:39:30.193Z,7.10
2023-04-21T03:41:57.916Z,8.00
2023-04-21T03:44:27.299Z,7.60
2023-04-21T03:46:55.426Z,6.95
2023-04-21T03:49:24.238Z,7.07
2023-04-21T03:51:51.265Z,7.38
2023-04-21T03:54:18.366Z,7.78
2023-04-21T03:56:45.509Z,10.98
2023-04-21T03:59:12.480Z,7.82
2023-04-21T04:01:39.458Z,7.32
2023-04-21T04:04:06.715Z,7.57
2023-04-21T04:06:35.544Z,8.55
2023-04-21T04:09:04.700Z,9.65
2023-04-21T04:11:32.364Z,10.13
2023-04-21T04:14:00.382Z,10.50
2023-04-21T04:16:29.202Z,9.00
2023-04-21T04:18:56.547Z,9.90
2023-04-21T04:21:30.674Z,8.40
2023-04-21T04:24:19.671Z,9.70
2023-04-21T04:52:58.071Z,10.18
2023-04-21T04:55:26.164Z,9.68
2023-04-21T04:57:53.261Z,9.30
2023-04-21T05:00:20.792Z,10.45
2023-04-21T05:06:35.682Z,13.13
2023-04-21T05:09:04.896Z,12.05
2023-04-21T05:11:34.888Z,13.35
2023-04-21T05:18:42.117Z,11.75
2023-04-21T05:28:58.303Z,9.20
2023-04-21T05:31:53.772Z,9.05
2023-04-21T05:34:59.760Z,7.78
2023-04-21T05:37:46.752Z,11.93
2023-04-21T05:44:30.605Z,11.35
2023-04-21T05:46:57.747Z,10.05
2023-04-21T05:49:24.830Z,10.57
2023-04-21T05:52:41.551Z,9.75
2023-04-21T05:55:26.947Z,8.10
2023-04-21T05:57:55.377Z,7.88
2023-04-21T06:00:22.521Z,7.97
2023-04-21T06:02:49.715Z,8.65
2023-04-21T06:05:17.141Z,10.65
2023-04-21T06:07:44.785Z,8.95
2023-04-21T06:10:13.577Z,7.20
2023-04-21T06:12:40.856Z,7.32
2023-04-21T06:15:08.475Z,9.45
2023-04-21T06:17:35.864Z,9.93
2023-04-21T06:20:04.362Z,10.60
2023-04-21T06:22:33.129Z,11.30
2023-04-21T06:25:02.699Z,12.88
2023-04-21T06:27:29.756Z,11.63
2023-04-21T06:29:57.242Z,9.40
2023-04-21T06:32:24.419Z,10.30
2023-04-21T06:34:51.401Z,9.27
2023-04-21T06:37:18.529Z,8.32
2023-04-21T06:39:45.455Z,8.85
2023-04-21T06:42:12.584Z,9.75
2023-04-21T06:44:45.557Z,9.65
2023-04-21T06:47:12.805Z,9.55
2023-04-21T06:49:40.236Z,10.05
2023-04-21T06:52:07.390Z,13.02
2023-04-21T06:54:34.466Z,11.32
2023-04-21T06:57:02.252Z,11.30
2023-04-21T06:59:29.398Z,10.05
2023-04-21T07:01:56.496Z,9.02
2023-04-21T07:04:24.135Z,11.88
2023-04-21T07:06:51.226Z,11.73
2023-04-21T07:09:18.756Z,11.25
2023-04-21T07:11:46.034Z,11.23
2023-04-21T07:14:15.221Z,10.07
2023-04-21T07:16:42.323Z,9.77
2023-04-21T07:19:09.603Z,8.57
2023-04-21T07:21:36.720Z,9.55
2023-04-21T07:24:04.548Z,8.35
2023-04-21T07:26:31.929Z,9.90
2023-04-21T07:29:02.115Z,9.30
2023-04-21T07:31:29.213Z,11.75
2023-04-21T07:33:56.693Z,11.27
2023-04-21T07:36:31.458Z,9.23
2023-04-21T07:38:58.895Z,9.13
2023-04-21T07:41:26.519Z,10.95
2023-04-21T07:43:53.960Z,9.05
2023-04-21T07:46:23.141Z,9.43
2023-04-21T07:48:50.306Z,8.63
2023-04-21T07:51:18.104Z,8.77
2023-04-21T07:53:45.302Z,10.23
2023-04-21T07:56:15.045Z,8.45
2023-04-21T07:58:42.486Z,8.68
2023-04-21T08:01:09.757Z,8.70
2023-04-21T08:03:37.043Z,7.93
2023-04-21T08:06:05.029Z,8.55
2023-04-21T08:08:32.467Z,9.40
2023-04-21T08:10:59.520Z,8.25
2023-04-21T08:13:26.691Z,10.25
2023-04-21T08:15:54.164Z,9.52
2023-04-21T08:18:22.796Z,9.32
2023-04-21T08:20:50.205Z,10.20
2023-04-21T08:23:17.435Z,9.32
2023-04-21T08:25:44.981Z,11.15
2023-04-21T08:28:11.984Z,11.40
2023-04-21T08:30:39.270Z,12.77
2023-04-21T08:33:13.837Z,11.88
2023-04-21T08:35:54.952Z,11.75
2023-04-21T08:38:32.227Z,12.80
2023-04-21T08:41:04.411Z,13.73
2023-04-21T08:43:31.621Z,12.18
2023-04-21T08:46:00.610Z,10.55
2023-04-21T08:48:29.831Z,9.88
2023-04-21T08:50:58.148Z,11.57
2023-04-21T08:53:25.378Z,12.27
2023-04-21T08:56:07.336Z,10.05
2023-04-21T08:58:38.104Z,10.50
2023-04-21T09:01:05.434Z,10.70
2023-04-21T09:03:32.815Z,11.18
2023-04-21T09:06:07.971Z,10.70
2023-04-21T09:08:39.931Z,11.10
2023-04-21T09:11:07.018Z,11.47
2023-04-21T09:13:36.542Z,11.57
2023-04-21T09:16:08.821Z,10.63
2023-04-21T09:21:11.897Z,10.23
2023-04-21T09:23:47.732Z,11.15
2023-04-21T09:26:18.947Z,9.68
2023-04-21T09:28:47.932Z,11.60
2023-04-21T09:31:28.509Z,11.98
2023-04-21T09:34:00.425Z,13.27
2023-04-21T09:36:30.815Z,16.10
2023-04-21T09:41:33.707Z,13.45
2023-04-21T09:44:05.189Z,14.07
2023-04-21T09:46:36.770Z,15.23
2023-04-21T09:49:04.787Z,13.85
2023-04-21T09:52:05.338Z,15.30
2023-04-21T09:54:29.503Z,12.93
2023-04-21T09:57:01.800Z,11.82
2023-04-21T09:59:45.090Z,13.95
2023-04-21T10:02:13.290Z,13.10
2023-04-21T10:04:44.005Z,14.88
2023-04-21T10:07:12.306Z,12.55
2023-04-21T10:09:45.431Z,14.25
2023-04-21T10:12:17.053Z,14.07
2023-04-21T10:14:44.062Z,11.93
2023-04-21T10:17:11.812Z,13.95
2023-04-21T10:19:49.393Z,15.32
2023-04-21T10:22:30.983Z,17.52
2023-04-21T10:25:00.864Z,11.03
2023-04-21T10:27:41.215Z,13.65
2023-04-21T10:30:22.675Z,13.50
2023-04-21T10:33:02.052Z,15.35
2023-04-21T10:35:59.967Z,14.45
2023-04-21T10:38:44.256Z,15.25
2023-04-21T10:41:28.576Z,15.68
2023-04-21T10:44:01.718Z,14.38
2023-04-21T10:46:37.029Z,15.27
2023-04-21T10:49:12.105Z,19.27
2023-04-21T10:51:58.950Z,15.98
2023-04-21T10:54:27.557Z,15.40
2023-04-21T10:56:59.465Z,15.60
2023-04-21T10:59:29.584Z,14.00
2023-04-21T11:01:57.133Z,14.35
2023-04-21T11:04:24.886Z,11.77
2023-04-21T11:07:11.018Z,15.00
2023-04-21T11:09:39.426Z,16.23
2023-04-21T11:12:11.207Z,15.50
2023-04-21T11:14:40.676Z,13.75
2023-04-21T11:17:16.126Z,15.55
2023-04-21T11:19:46.930Z,13.05
2023-04-21T11:22:14.196Z,15.20
2023-04-21T11:25:23.590Z,12.65
2023-04-21T11:28:24.675Z,14.48
2023-04-21T11:30:59.354Z,12.90
2023-04-21T11:33:46.362Z,12.77
2023-04-21T11:36:13.693Z,14.95
2023-04-21T11:38:43.775Z,13.88
2023-04-21T11:41:15.710Z,16.80
2023-04-21T11:43:48.918Z,16.50
2023-04-21T11:46:24.547Z,13.95
2023-04-21T11:49:08.772Z,14.50
2023-04-21T11:51:44.479Z,15.10
2023-04-21T11:54:17.070Z,16.20
2023-04-21T11:59:55.143Z,14.52
2023-04-21T12:02:28.398Z,13.60
2023-04-21T12:05:07.041Z,16.67
2023-04-21T12:07:36.636Z,14.43
2023-04-21T12:13:10.782Z,13.40
2023-04-21T12:15:38.115Z,13.93
2023-04-21T12:18:50.882Z,16.08
2023-04-21T12:21:18.712Z,13.27
2023-04-21T12:28:16.565Z,13.52
2023-04-21T12:30:46.719Z,13.95
2023-04-21T12:34:32.296Z,11.60
2023-04-21T12:39:54.060Z,11.53
2023-04-21T12:42:51.881Z,11.23
2023-04-21T12:46:25.921Z,12.93
2023-04-21T12:53:12.895Z,15.10
2023-04-21T12:56:12.193Z,15.98
2023-04-21T12:58:52.857Z,16.13
2023-04-21T13:01:22.244Z,18.60
2023-04-21T13:03:49.618Z,16.42
2023-04-21T13:06:30.821Z,13.63
2023-04-21T13:08:57.893Z,13.90
2023-04-21T13:11:25.294Z,13.90
2023-04-21T13:13:52.372Z,12.60
2023-04-21T13:16:27.285Z,13.52
2023-04-21T13:18:56.847Z,12.20
2023-04-21T13:21:26.632Z,12.25
2023-04-21T13:23:59.496Z,10.80
2023-04-21T13:26:31.574Z,12.82
2023-04-21T13:32:19.226Z,12.30
2023-04-21T13:34:49.723Z,9.98
2023-04-21T13:37:17.176Z,11.85
2023-04-21T13:39:44.393Z,13.13
2023-04-21T13:42:11.770Z,10.55
2023-04-21T13:44:42.289Z,11.65
2023-04-21T13:47:09.810Z,12.10
2023-04-21T13:55:43.990Z,11.30
2023-04-21T14:15:27.041Z,11.77
2023-04-21T14:18:00.732Z,13.27
2023-04-21T14:20:32.337Z,13.75
2023-04-21T14:22:59.696Z,14.32
2023-04-21T14:25:38.961Z,11.60
2023-04-21T14:28:17.454Z,12.13
2023-04-21T14:37:34.356Z,14.23
2023-04-21T14:41:00.044Z,10.93
2023-04-21T14:57:19.677Z,9.43
2023-04-21T15:03:05.323Z,9.82
2023-04-21T15:05:37.660Z,11.35
2023-04-21T15:08:11.804Z,11.60
2023-04-21T15:10:47.782Z,12.85
2023-04-21T15:13:15.357Z,13.02
2023-04-21T15:15:44.949Z,11.63
2023-04-21T15:18:21.219Z,9.60
2023-04-21T15:20:52.312Z,10.77
2023-04-21T15:28:16.905Z,10.98
2023-04-21T15:30:52.888Z,10.77
2023-04-21T15:33:41.032Z,9.25
2023-04-21T15:36:15.493Z,10.10
2023-04-21T15:39:52.675Z,10.65
2023-04-21T15:57:17.718Z,9.73
2023-04-21T15:58:33.651Z,9.38
2023-04-21T16:01:00.982Z,12.05
2023-04-21T16:03:29.080Z,7.80
2023-04-21T16:06:01.206Z,9.75
2023-04-21T16:08:30.803Z,8.02
2023-04-21T16:18:52.780Z,8.30
2023-04-21T16:21:26.358Z,7.07
2023-04-21T16:24:08.317Z,7.40
2023-04-21T16:26:36.885Z,8.15
2023-04-21T16:29:04.068Z,7.03
2023-04-21T16:31:31.735Z,7.90
2023-04-21T16:46:48.155Z,8.82
2023-04-21T16:49:16.726Z,6.80
2023-04-21T16:51:45.586Z,7.45
2023-04-21T16:54:46.024Z,8.77
2023-04-21T16:57:24.110Z,8.07
2023-04-21T17:00:10.960Z,6.82
2023-04-21T17:02:45.928Z,8.73
2023-04-21T17:05:15.648Z,10.25
2023-04-21T17:07:46.084Z,9.02
2023-04-21T17:10:15.635Z,15.18
2023-04-21T17:12:46.677Z,25.05
2023-04-21T17:15:18.480Z,45.13
2023-04-21T17:17:49.703Z,21.48
2023-04-21T17:20:19.365Z,13.70
2023-04-21T17:26:02.472Z,12.15
2023-04-21T17:28:30.234Z,11.65
2023-04-21T17:31:13.665Z,13.80
2023-04-21T17:34:00.247Z,13.45
2023-04-21T17:36:31.133Z,22.20
2023-04-21T17:38:59.361Z,17.33
2023-04-21T17:41:33.140Z,13.15
2023-04-21T17:47:31.050Z,16.75
2023-04-21T17:49:58.889Z,10.90
2023-04-21T17:52:26.876Z,4.80
2023-04-21T17:54:54.859Z,4.95
2023-04-21T17:57:21.949Z,5.45
2023-04-21T17:59:49.171Z,2.30
2023-04-21T18:02:16.480Z,2.80
2023-04-21T18:04:44.523Z,1.30
2023-04-21T18:07:20.700Z,3.20
2023-04-21T18:14:00.841Z,1.23
2023-04-21T18:16:34.814Z,1.63
2023-04-21T18:19:11.452Z,2.20
2023-04-21T18:21:38.510Z,0.70
2023-04-21T18:24:08.152Z,1.92
2023-04-21T18:26:41.498Z,1.75
2023-04-21T18:29:19.920Z,0.70
2023-04-21T18:32:31.000Z,2.05
2023-04-21T18:34:58.425Z,1.85
2023-04-21T18:37:25.867Z,1.33
2023-04-21T18:39:53.186Z,3.03
2023-04-21T18:42:20.612Z,1.52
2023-04-21T18:44:50.061Z,1.45
2023-04-21T18:47:35.157Z,1.77
2023-04-21T18:50:03.047Z,1.30
2023-04-21T18:52:42.461Z,1.92
2023-04-21T18:55:13.197Z,1.52
2023-04-21T18:57:44.260Z,2.05
2023-04-21T19:00:12.021Z,2.90
2023-04-21T19:03:05.580Z,3.13
2023-04-21T19:05:40.634Z,3.40
2023-04-21T19:08:10.245Z,1.58
2023-04-21T19:10:40.712Z,1.95
2023-04-21T19:13:08.029Z,2.58
2023-04-21T19:15:35.466Z,2.55
2023-04-21T19:18:02.995Z,1.73
2023-04-21T19:20:30.718Z,1.52
2023-04-21T19:23:59.061Z,1.77
2023-04-21T19:26:34.574Z,2.05
2023-04-21T19:29:15.679Z,2.60
2023-04-21T19:31:49.266Z,2.40
2023-04-21T19:34:17.261Z,1.98
2023-04-21T19:36:47.780Z,2.22
2023-04-21T19:40:04.585Z,2.03
2023-04-21T19:42:59.108Z,2.20
2023-04-21T19:54:10.692Z,2.50
2023-04-21T19:56:44.681Z,2.47
2023-04-21T19:59:23.789Z,2.30
2023-04-21T20:01:58.041Z,3.60
2023-04-21T20:04:25.602Z,2.00
2023-04-21T20:06:53.335Z,3.40
2023-04-21T20:09:20.798Z,3.13
2023-04-21T20:11:51.033Z,2.17
2023-04-21T20:14:20.460Z,2.75
2023-04-21T20:17:02.349Z,2.17
2023-04-21T20:19:32.005Z,2.42
2023-04-21T20:21:59.335Z,3.65
2023-04-21T20:24:26.950Z,2.30
2023-04-21T20:27:31.728Z,2.00
2023-04-21T20:30:02.105Z,2.42
2023-04-21T20:32:29.688Z,2.28
2023-04-21T20:35:00.374Z,1.90
2023-04-21T20:37:36.647Z,1.73
2023-04-21T20:40:08.380Z,2.47
2023-04-21T20:42:54.717Z,1.63
2023-04-21T20:45:22.506Z,2.15
2023-04-21T20:47:50.471Z,2.67
2023-04-21T20:50:43.322Z,2.92
2023-04-21T20:53:18.783Z,3.88
2023-04-21T20:56:07.276Z,2.67
2023-04-21T20:58:43.486Z,2.10
2023-04-21T21:01:11.153Z,1.20
2023-04-21T21:03:38.403Z,1.35
2023-04-21T21:06:13.681Z,1.45
2023-04-21T21:08:42.133Z,1.65
2023-04-21T21:11:15.367Z,1.95
2023-04-21T21:13:42.721Z,1.77
2023-04-21T21:16:14.553Z,1.60
2023-04-21T21:18:42.454Z,1.48
2023-04-21T21:21:21.612Z,2.17
2023-04-21T21:24:13.384Z,2.25
2023-04-21T21:26:55.403Z,1.65
2023-04-21T21:29:36.468Z,2.22
2023-04-21T21:32:41.349Z,1.30
2023-04-21T21:35:44.824Z,2.55
2023-04-21T21:42:25.608Z,1.20
2023-04-21T21:45:00.145Z,1.27
2023-04-21T21:47:27.860Z,1.63
2023-04-21T21:50:04.665Z,2.38
2023-04-21T21:56:28.985Z,1.55
2023-04-21T21:58:56.347Z,1.98
2023-04-21T22:02:01.707Z,1.38
2023-04-21T22:04:36.319Z,2.33
2023-04-21T22:10:21.850Z,1.65
2023-04-21T22:13:12.135Z,1.95
2023-04-21T22:15:41.127Z,1.80
2023-04-21T22:18:48.333Z,1.38
2023-04-21T22:21:18.686Z,1.58
2023-04-21T22:23:56.557Z,1.85
2023-04-21T22:26:26.036Z,2.17
2023-04-21T22:28:54.785Z,1.90
2023-04-21T22:31:33.365Z,2.58
2023-04-21T22:34:00.480Z,1.70
2023-04-21T22:36:27.627Z,1.52
2023-04-21T22:38:59.564Z,1.45
2023-04-21T22:46:08.489Z,1.63
2023-04-21T22:48:28.420Z,1.75
2023-04-21T22:50:55.933Z,1.33
2023-04-21T22:53:26.596Z,2.20
2023-04-21T22:56:10.600Z,1.85
2023-04-21T22:58:41.753Z,2.28
2023-04-21T23:01:17.305Z,1.65
2023-04-21T23:03:44.843Z,2.30
2023-04-21T23:06:17.414Z,1.55
2023-04-21T23:08:44.641Z,3.05
2023-04-21T23:11:14.202Z,1.15
2023-04-21T23:13:46.905Z,1.95
2023-04-21T23:16:14.179Z,1.88
2023-04-21T23:18:44.803Z,1.10
2023-04-21T23:21:16.344Z,1.02
2023-04-21T23:23:48.834Z,1.63
2023-04-21T23:26:16.200Z,1.98
2023-04-21T23:28:46.362Z,2.25
2023-04-21T23:31:17.257Z,1.10
2023-04-21T23:33:44.629Z,1.40
2023-04-21T23:36:14.411Z,1.75
2023-04-21T23:38:44.107Z,2.70
2023-04-21T23:41:11.415Z,1.75
2023-04-21T23:43:38.789Z,1.83
2023-04-21T23:46:06.206Z,1.83
2023-04-21T23:48:36.450Z,2.15
2023-04-21T23:51:03.837Z,2.35
2023-04-21T23:53:31.312Z,3.97
2023-04-21T23:56:03.488Z,2.40
2023-04-21T23:58:30.548Z,2.28
